createdAt,value
2022-11-09T00:01:57.746Z,81.80
2022-11-09T00:04:26.340Z,82.00
2022-11-09T00:06:54.910Z,82.30
2022-11-09T00:09:24.803Z,82.30
2022-11-09T00:11:54.825Z,82.60
2022-11-09T00:14:23.439Z,82.70
2022-11-09T00:16:51.916Z,82.70
2022-11-09T00:19:20.441Z,82.70
2022-11-09T00:21:48.876Z,82.70
2022-11-09T00:24:17.450Z,82.60
2022-11-09T00:26:47.453Z,82.70
2022-11-09T00:29:16.174Z,82.90
2022-11-09T00:31:44.631Z,83.10
2022-11-09T00:34:13.377Z,83.30
2022-11-09T00:36:43.984Z,83.50
2022-11-09T00:39:12.613Z,83.60
2022-11-09T00:41:41.132Z,83.70
2022-11-09T00:44:11.073Z,83.80
2022-11-09T00:46:39.874Z,84.10
2022-11-09T00:49:08.365Z,84.40
2022-11-09T00:51:36.788Z,84.50
2022-11-09T00:54:08.233Z,83.90
2022-11-09T00:56:36.920Z,83.90
2022-11-09T00:59:05.614Z,83.80
2022-11-09T01:01:35.779Z,83.60
2022-11-09T01:04:06.862Z,83.30
2022-11-09T01:06:35.555Z,83.10
2022-11-09T01:09:04.350Z,82.70
2022-11-09T01:11:32.875Z,82.50
2022-11-09T01:14:02.438Z,82.10
2022-11-09T01:16:31.006Z,82.30
2022-11-09T01:19:00.954Z,82.50
2022-11-09T01:21:29.895Z,82.60
2022-11-09T01:24:01.960Z,82.80
2022-11-09T01:26:30.750Z,82.90
2022-11-09T01:28:59.338Z,82.90
2022-11-09T01:31:27.895Z,83.00
2022-11-09T01:33:56.648Z,83.30
2022-11-09T01:36:27.488Z,83.40
2022-11-09T01:38:56.077Z,83.60
2022-11-09T01:41:25.342Z,83.70
2022-11-09T01:44:07.433Z,83.80
2022-11-09T01:46:42.531Z,84.00
2022-11-09T01:49:13.482Z,84.80
2022-11-09T01:51:47.289Z,84.30
2022-11-09T01:54:18.919Z,84.70
2022-11-09T01:56:50.027Z,84.60
2022-11-09T01:59:39.660Z,84.80
2022-11-09T02:02:08.320Z,84.90
2022-11-09T02:04:57.100Z,84.90
2022-11-09T02:07:27.990Z,84.80
2022-11-09T02:09:58.195Z,84.90
2022-11-09T02:12:27.449Z,85.00
2022-11-09T02:14:58.084Z,85.20
2022-11-09T02:17:28.898Z,86.00
2022-11-09T02:19:58.647Z,85.70
2022-11-09T02:22:28.629Z,85.70
2022-11-09T02:24:57.211Z,85.90
2022-11-09T02:27:25.977Z,85.80
2022-11-09T02:29:56.172Z,85.70
2022-11-09T02:32:27.560Z,85.60
2022-11-09T02:35:14.737Z,85.50
2022-11-09T02:37:46.875Z,85.70
2022-11-09T02:40:38.050Z,85.90
2022-11-09T02:43:08.265Z,86.00
2022-11-09T02:45:37.159Z,86.20
2022-11-09T02:48:07.414Z,86.40
2022-11-09T02:50:38.617Z,86.60
2022-11-09T02:53:26.790Z,86.80
2022-11-09T02:55:55.770Z,87.00
2022-11-09T02:58:24.508Z,87.20
2022-11-09T03:00:53.145Z,87.40
2022-11-09T03:03:23.290Z,87.50
2022-11-09T03:05:52.393Z,87.60
2022-11-09T03:08:21.057Z,87.70
2022-11-09T03:10:51.497Z,87.70
2022-11-09T03:13:20.291Z,88.00
2022-11-09T03:15:49.754Z,88.10
2022-11-09T03:18:18.301Z,88.20
2022-11-09T03:20:46.856Z,88.40
2022-11-09T03:23:18.565Z,88.60
2022-11-09T03:26:07.197Z,89.00
2022-11-09T03:28:36.628Z,89.20
2022-11-09T03:31:05.495Z,89.70
2022-11-09T03:33:34.275Z,89.90
2022-11-09T03:36:03.334Z,90.00
2022-11-09T03:38:31.884Z,90.10
2022-11-09T03:41:00.767Z,90.20
2022-11-09T03:43:31.618Z,90.30
2022-11-09T03:46:00.229Z,90.50
2022-11-09T03:48:28.664Z,90.60
2022-11-09T03:50:57.266Z,90.60
2022-11-09T03:53:25.703Z,90.60
2022-11-09T03:55:54.166Z,90.60
2022-11-09T03:58:22.691Z,90.60
2022-11-09T04:00:52.622Z,90.70
2022-11-09T04:03:21.541Z,90.80
2022-11-09T04:05:50.206Z,90.80
2022-11-09T04:08:18.612Z,90.70
2022-11-09T04:10:47.210Z,90.70
2022-11-09T04:13:15.613Z,90.80
2022-11-09T04:15:44.412Z,90.80
2022-11-09T04:18:15.164Z,91.00
2022-11-09T04:20:44.083Z,91.00
2022-11-09T04:23:13.525Z,91.20
2022-11-09T04:25:43.047Z,91.30
2022-11-09T04:28:19.998Z,91.70
2022-11-09T04:30:48.563Z,91.40
2022-11-09T04:33:18.805Z,91.60
2022-11-09T04:35:47.643Z,91.80
2022-11-09T04:38:16.343Z,91.70
2022-11-09T04:40:44.894Z,91.40
2022-11-09T04:43:14.228Z,90.90
2022-11-09T04:45:43.050Z,90.60
2022-11-09T04:48:12.296Z,90.40
2022-11-09T04:50:42.350Z,90.40
2022-11-09T04:53:11.815Z,90.20
2022-11-09T04:55:40.759Z,90.30
2022-11-09T04:58:09.336Z,90.60
2022-11-09T05:00:38.203Z,91.00
2022-11-09T05:03:07.519Z,90.80
2022-11-09T05:05:36.654Z,91.00
2022-11-09T05:08:07.239Z,91.10
2022-11-09T05:10:36.169Z,91.20
2022-11-09T05:13:05.445Z,91.40
2022-11-09T05:15:34.175Z,91.50
2022-11-09T05:18:02.978Z,91.60
2022-11-09T05:20:31.850Z,91.80
2022-11-09T05:23:17.770Z,91.80
2022-11-09T05:25:48.503Z,91.90
2022-11-09T05:28:17.157Z,92.10
2022-11-09T05:30:45.772Z,92.20
2022-11-09T05:33:15.022Z,92.30
2022-11-09T05:36:02.311Z,92.30
2022-11-09T05:38:30.727Z,92.40
2022-11-09T05:41:00.843Z,92.50
2022-11-09T05:43:29.314Z,92.60
2022-11-09T05:46:00.402Z,92.60
2022-11-09T05:48:32.632Z,92.60
2022-11-09T05:51:02.304Z,92.70
2022-11-09T05:53:30.909Z,92.70
2022-11-09T05:56:04.874Z,92.70
2022-11-09T05:58:52.052Z,92.80
2022-11-09T06:01:20.627Z,92.70
2022-11-09T06:03:49.134Z,92.80
2022-11-09T06:06:18.244Z,92.70
2022-11-09T06:08:46.936Z,92.80
2022-11-09T06:11:23.040Z,92.80
2022-11-09T06:13:52.886Z,92.90
2022-11-09T06:16:21.331Z,92.90
2022-11-09T06:18:49.997Z,92.90
2022-11-09T06:21:18.545Z,93.00
2022-11-09T06:23:47.063Z,93.00
2022-11-09T06:26:17.075Z,93.00
2022-11-09T06:28:45.813Z,93.00
2022-11-09T06:31:15.013Z,92.90
2022-11-09T06:33:43.594Z,92.90
2022-11-09T06:36:12.684Z,92.80
2022-11-09T06:38:41.740Z,92.70
2022-11-09T06:41:10.732Z,92.80
2022-11-09T06:43:40.628Z,92.50
2022-11-09T06:46:11.060Z,92.40
2022-11-09T06:48:40.215Z,92.40
2022-11-09T06:51:13.012Z,92.40
2022-11-09T06:53:41.891Z,92.40
2022-11-09T06:56:11.348Z,92.40
2022-11-09T06:58:42.020Z,92.30
2022-11-09T07:01:11.754Z,92.30
2022-11-09T07:03:40.584Z,92.30
2022-11-09T07:06:09.789Z,92.20
2022-11-09T07:08:38.304Z,92.20
2022-11-09T07:11:07.307Z,92.20
2022-11-09T07:13:36.084Z,91.70
2022-11-09T07:16:06.162Z,91.50
2022-11-09T07:18:35.495Z,91.50
2022-11-09T07:21:10.089Z,91.10
2022-11-09T07:23:42.485Z,90.60
2022-11-09T07:26:11.344Z,90.00
2022-11-09T07:28:39.959Z,89.70
2022-11-09T07:31:10.288Z,89.30
2022-11-09T07:33:39.280Z,89.30
2022-11-09T07:36:08.086Z,89.00
2022-11-09T07:38:36.695Z,88.60
2022-11-09T07:41:23.599Z,87.60
2022-11-09T07:43:52.208Z,87.10
2022-11-09T07:46:23.500Z,86.70
2022-11-09T07:48:52.096Z,86.50
2022-11-09T07:51:20.586Z,85.80
2022-11-09T07:53:49.164Z,85.60
2022-11-09T07:56:18.379Z,85.40
2022-11-09T07:58:46.856Z,85.20
2022-11-09T08:01:15.332Z,84.40
2022-11-09T08:03:45.361Z,83.80
2022-11-09T08:06:18.247Z,82.90
2022-11-09T08:08:48.134Z,82.20
2022-11-09T08:11:16.733Z,81.50
2022-11-09T08:13:45.295Z,82.00
2022-11-09T08:16:13.965Z,80.50
2022-11-09T08:18:42.419Z,80.40
2022-11-09T08:21:12.595Z,80.10
2022-11-09T08:23:41.493Z,79.40
2022-11-09T08:26:10.082Z,79.00
2022-11-09T08:28:38.471Z,78.70
2022-11-09T08:31:08.252Z,78.30
2022-11-09T08:33:37.559Z,77.90
2022-11-09T08:36:10.126Z,76.20
2022-11-09T08:38:40.114Z,72.20
2022-11-09T08:41:13.226Z,67.00
2022-11-09T08:43:42.288Z,62.70
2022-11-09T08:46:10.812Z,59.70
2022-11-09T08:48:39.252Z,57.10
2022-11-09T08:51:07.762Z,54.50
2022-11-09T08:53:36.248Z,52.80
2022-11-09T08:56:08.643Z,51.60
2022-11-09T08:58:38.386Z,49.10
2022-11-09T09:01:12.195Z,48.30
2022-11-09T09:03:44.078Z,46.40
2022-11-09T09:06:12.635Z,45.70
2022-11-09T09:08:41.111Z,45.10
2022-11-09T09:11:11.024Z,44.70
2022-11-09T09:13:43.327Z,44.80
2022-11-09T09:16:13.130Z,44.30
2022-11-09T09:18:41.712Z,43.10
2022-11-09T09:21:10.908Z,42.10
2022-11-09T09:23:39.572Z,41.80
2022-11-09T09:26:08.116Z,41.00
2022-11-09T09:28:38.244Z,41.20
2022-11-09T09:31:06.957Z,39.60
2022-11-09T09:33:35.455Z,38.60
2022-11-09T09:36:04.059Z,38.30
2022-11-09T09:38:32.634Z,38.00
2022-11-09T09:41:01.691Z,37.70
2022-11-09T09:43:32.533Z,37.30
2022-11-09T09:46:04.815Z,36.80
2022-11-09T09:48:38.254Z,36.10
2022-11-09T09:51:11.221Z,35.50
2022-11-09T09:53:44.575Z,35.20
2022-11-09T09:56:15.397Z,34.80
2022-11-09T09:58:46.357Z,34.30
2022-11-09T10:01:39.255Z,34.00
2022-11-09T10:04:16.881Z,33.80
2022-11-09T10:06:50.223Z,33.40
2022-11-09T10:09:25.365Z,33.00
2022-11-09T10:12:01.105Z,32.80
2022-11-09T10:14:45.592Z,32.90
2022-11-09T10:17:39.259Z,33.00
2022-11-09T10:20:23.373Z,32.30
2022-11-09T10:22:58.014Z,32.60
2022-11-09T10:25:57.694Z,32.40
2022-11-09T10:28:20.343Z,32.10
2022-11-09T10:30:51.447Z,32.20
2022-11-09T10:33:41.588Z,32.10
2022-11-09T10:36:19.008Z,31.80
2022-11-09T10:38:51.839Z,31.60
2022-11-09T10:41:44.680Z,31.60
2022-11-09T10:44:32.408Z,31.40
2022-11-09T10:47:20.848Z,31.20
2022-11-09T10:50:23.431Z,31.10
2022-11-09T10:53:15.498Z,31.80
2022-11-09T10:56:20.215Z,32.90
2022-11-09T10:59:40.831Z,34.30
2022-11-09T11:02:48.162Z,35.80
2022-11-09T11:05:37.733Z,37.10
2022-11-09T11:08:36.301Z,37.80
2022-11-09T11:11:34.331Z,38.60
2022-11-09T11:14:30.377Z,39.40
2022-11-09T11:17:27.949Z,40.30
2022-11-09T11:20:30.266Z,41.00
2022-11-09T11:23:21.221Z,41.60
2022-11-09T11:26:35.948Z,42.10
2022-11-09T11:29:48.548Z,42.50
2022-11-09T11:32:35.953Z,42.90
2022-11-09T11:35:32.439Z,43.10
2022-11-09T11:38:28.865Z,43.30
2022-11-09T11:41:39.663Z,43.80
2022-11-09T11:44:38.836Z,44.10
2022-11-09T11:47:29.840Z,44.40
2022-11-09T11:50:27.527Z,44.70
2022-11-09T11:53:38.235Z,44.70
2022-11-09T11:56:32.943Z,45.10
2022-11-09T11:59:51.298Z,45.10
2022-11-09T12:03:26.745Z,45.20
2022-11-09T12:06:25.747Z,45.60
2022-11-09T12:09:30.731Z,45.90
2022-11-09T12:12:32.329Z,46.00
2022-11-09T12:15:28.505Z,46.20
2022-11-09T12:18:29.835Z,46.60
2022-11-09T12:21:18.911Z,46.90
2022-11-09T12:24:17.259Z,47.20
2022-11-09T12:27:33.877Z,47.40
2022-11-09T12:30:24.242Z,47.50
2022-11-09T12:33:17.052Z,47.80
2022-11-09T12:36:10.965Z,48.10
2022-11-09T12:39:05.512Z,48.30
2022-11-09T12:41:55.472Z,48.80
2022-11-09T12:44:49.665Z,48.80
2022-11-09T12:47:42.017Z,48.60
2022-11-09T12:50:30.207Z,48.90
2022-11-09T12:53:19.437Z,49.20
2022-11-09T12:56:12.784Z,49.10
2022-11-09T12:59:21.236Z,49.10
2022-11-09T13:02:25.383Z,49.30
2022-11-09T13:05:31.023Z,49.50
2022-11-09T13:08:22.541Z,49.60
2022-11-09T13:11:19.641Z,49.90
2022-11-09T13:14:35.880Z,50.00
2022-11-09T13:18:03.173Z,50.10
2022-11-09T13:20:56.594Z,50.20
2022-11-09T13:24:03.248Z,50.40
2022-11-09T13:26:58.417Z,50.50
2022-11-09T13:29:56.642Z,50.70
2022-11-09T13:33:20.740Z,50.70
2022-11-09T13:36:21.290Z,50.50
2022-11-09T13:39:44.483Z,50.60
2022-11-09T13:42:34.629Z,50.70
2022-11-09T13:45:31.441Z,51.10
2022-11-09T13:48:44.581Z,51.10
2022-11-09T13:51:47.399Z,51.20
2022-11-09T13:54:39.632Z,51.30
2022-11-09T13:57:28.504Z,51.60
2022-11-09T14:00:23.698Z,52.00
2022-11-09T14:03:20.730Z,52.00
2022-11-09T14:06:13.488Z,52.10
2022-11-09T14:09:04.122Z,52.20
2022-11-09T14:12:06.533Z,52.40
2022-11-09T14:15:07.099Z,52.60
2022-11-09T14:18:09.055Z,52.70
2022-11-09T14:21:01.437Z,52.80
2022-11-09T14:23:50.463Z,53.00
2022-11-09T14:26:39.459Z,53.10
2022-11-09T14:29:33.316Z,53.20
2022-11-09T14:32:31.106Z,53.40
2022-11-09T14:35:28.862Z,53.70
2022-11-09T14:38:20.228Z,54.00
2022-11-09T14:41:23.047Z,54.10
2022-11-09T14:44:18.141Z,54.40
2022-11-09T14:47:07.564Z,54.60
2022-11-09T14:49:55.415Z,54.70
2022-11-09T14:52:43.603Z,55.00
2022-11-09T14:55:31.971Z,55.10
2022-11-09T14:58:20.496Z,55.30
2022-11-09T15:01:17.374Z,55.50
2022-11-09T15:04:10.075Z,55.80
2022-11-09T15:07:01.328Z,56.00
2022-11-09T15:09:51.444Z,56.10
2022-11-09T15:12:43.830Z,56.20
2022-11-09T15:15:35.916Z,56.50
2022-11-09T15:18:33.423Z,56.80
2022-11-09T15:21:33.932Z,57.10
2022-11-09T15:24:22.780Z,57.30
2022-11-09T15:27:30.459Z,57.60
2022-11-09T15:30:36.504Z,57.90
2022-11-09T15:33:30.764Z,58.20
2022-11-09T15:36:29.590Z,58.30
2022-11-09T15:39:19.162Z,58.60
2022-11-09T15:42:07.285Z,58.90
2022-11-09T15:44:56.951Z,59.00
2022-11-09T15:47:51.614Z,59.20
2022-11-09T15:50:41.056Z,59.40
2022-11-09T15:53:28.750Z,59.30
2022-11-09T15:56:19.334Z,59.50
2022-11-09T15:59:07.563Z,59.70
2022-11-09T16:01:55.360Z,59.90
2022-11-09T16:04:43.113Z,60.10
2022-11-09T16:07:32.381Z,60.50
2022-11-09T16:10:23.346Z,60.80
2022-11-09T16:13:12.497Z,61.20
2022-11-09T16:16:04.467Z,61.50
2022-11-09T16:18:51.612Z,61.90
2022-11-09T16:21:40.440Z,62.10
2022-11-09T16:24:29.498Z,62.40
2022-11-09T16:27:43.375Z,62.70
2022-11-09T16:30:25.085Z,63.00
2022-11-09T16:33:12.446Z,63.20
2022-11-09T16:36:02.574Z,63.50
2022-11-09T16:38:52.937Z,63.80
2022-11-09T16:41:43.093Z,64.00
2022-11-09T16:44:35.526Z,64.20
2022-11-09T16:47:23.318Z,63.60
2022-11-09T16:50:11.229Z,64.70
2022-11-09T16:52:58.750Z,65.00
2022-11-09T16:55:46.029Z,65.30
2022-11-09T16:58:34.719Z,65.60
2022-11-09T17:01:23.734Z,66.00
2022-11-09T17:04:11.641Z,66.30
2022-11-09T17:06:58.957Z,66.70
2022-11-09T17:09:46.309Z,66.90
2022-11-09T17:12:34.205Z,67.20
2022-11-09T17:15:23.415Z,67.50
2022-11-09T17:18:13.103Z,67.80
2022-11-09T17:21:01.180Z,67.90
2022-11-09T17:23:49.686Z,68.10
2022-11-09T17:26:37.892Z,68.30
2022-11-09T17:29:25.269Z,68.50
2022-11-09T17:32:14.429Z,68.70
2022-11-09T17:35:01.762Z,69.00
2022-11-09T17:37:49.627Z,69.20
2022-11-09T17:40:36.914Z,69.40
2022-11-09T17:43:24.325Z,69.60
2022-11-09T17:46:13.280Z,69.80
2022-11-09T17:49:07.048Z,70.00
2022-11-09T17:51:56.984Z,70.00
2022-11-09T17:54:44.535Z,70.00
2022-11-09T17:57:32.965Z,70.10
2022-11-09T18:00:21.257Z,70.20
2022-11-09T18:03:08.880Z,70.20
2022-11-09T18:05:57.666Z,70.50
2022-11-09T18:08:45.644Z,70.70
2022-11-09T18:11:34.060Z,70.80
2022-11-09T18:14:21.710Z,71.00
2022-11-09T18:17:09.772Z,71.00
2022-11-09T18:19:57.987Z,71.00
2022-11-09T18:22:46.875Z,71.20
2022-11-09T18:25:34.079Z,71.40
2022-11-09T18:28:21.932Z,71.70
2022-11-09T18:31:11.295Z,71.90
2022-11-09T18:33:58.484Z,72.10
2022-11-09T18:36:46.130Z,72.10
2022-11-09T18:39:35.291Z,72.30
2022-11-09T18:42:22.918Z,72.50
2022-11-09T18:45:11.765Z,72.60
2022-11-09T18:47:59.137Z,72.80
2022-11-09T18:50:46.390Z,72.80
2022-11-09T18:53:37.459Z,73.00
2022-11-09T18:56:27.043Z,73.10
2022-11-09T18:59:14.954Z,73.00
2022-11-09T19:02:02.615Z,72.70
2022-11-09T19:04:50.272Z,72.80
2022-11-09T19:07:37.762Z,73.00
2022-11-09T19:10:25.227Z,73.20
2022-11-09T19:13:14.271Z,73.40
2022-11-09T19:16:02.062Z,73.70
2022-11-09T19:18:50.141Z,74.00
2022-11-09T19:21:41.030Z,74.40
2022-11-09T19:24:31.257Z,75.00
2022-11-09T19:27:18.762Z,75.80
2022-11-09T19:30:09.990Z,76.00
2022-11-09T19:32:57.445Z,76.20
2022-11-09T19:35:56.781Z,76.40
2022-11-09T19:38:52.714Z,76.60
2022-11-09T19:41:40.969Z,76.80
2022-11-09T19:44:28.249Z,77.10
2022-11-09T19:47:17.738Z,77.00
2022-11-09T19:50:06.316Z,77.00
2022-11-09T19:52:53.847Z,76.90
2022-11-09T19:55:41.143Z,77.20
2022-11-09T19:58:28.608Z,77.20
2022-11-09T20:01:16.202Z,77.20
2022-11-09T20:04:09.912Z,77.20
2022-11-09T20:06:57.725Z,77.50
2022-11-09T20:09:45.492Z,77.70
2022-11-09T20:12:50.976Z,77.90
2022-11-09T20:15:38.671Z,78.30
2022-11-09T20:18:26.115Z,78.50
2022-11-09T20:21:15.960Z,78.70
2022-11-09T20:24:03.609Z,78.80
2022-11-09T20:26:50.902Z,78.90
2022-11-09T20:29:38.142Z,79.10
2022-11-09T20:32:25.586Z,79.00
2022-11-09T20:35:12.792Z,79.00
2022-11-09T20:38:01.788Z,79.30
2022-11-09T20:40:55.962Z,79.50
2022-11-09T20:43:43.958Z,79.70
2022-11-09T20:46:35.672Z,80.00
2022-11-09T20:49:24.224Z,80.30
2022-11-09T20:52:11.825Z,80.60
2022-11-09T20:55:01.885Z,81.50
2022-11-09T20:57:49.114Z,81.10
2022-11-09T21:00:43.822Z,81.20
2022-11-09T21:03:31.251Z,81.20
2022-11-09T21:06:18.870Z,81.30
2022-11-09T21:09:06.341Z,81.60
2022-11-09T21:12:12.933Z,81.80
2022-11-09T21:15:00.607Z,82.00
2022-11-09T21:17:48.477Z,82.00
2022-11-09T21:20:36.315Z,82.10
2022-11-09T21:23:41.249Z,82.40
2022-11-09T21:26:46.534Z,82.50
2022-11-09T21:29:53.977Z,82.70
2022-11-09T21:32:42.125Z,82.90
2022-11-09T21:35:29.728Z,83.10
2022-11-09T21:38:16.841Z,83.40
2022-11-09T21:41:25.714Z,83.70
2022-11-09T21:44:14.262Z,83.80
2022-11-09T21:47:03.964Z,83.90
2022-11-09T21:49:51.526Z,84.00
2022-11-09T21:52:38.769Z,84.10
2022-11-09T21:55:26.116Z,84.30
2022-11-09T21:58:13.588Z,84.40
2022-11-09T22:01:02.629Z,84.60
2022-11-09T22:03:51.999Z,85.00
2022-11-09T22:06:40.703Z,84.70
2022-11-09T22:09:35.741Z,83.10
2022-11-09T22:12:44.618Z,82.30
2022-11-09T22:15:50.036Z,82.20
2022-11-09T22:18:55.563Z,82.00
2022-11-09T22:21:44.589Z,82.40
2022-11-09T22:24:32.698Z,82.90
2022-11-09T22:27:20.292Z,83.30
2022-11-09T22:30:08.963Z,83.30
2022-11-09T22:32:56.261Z,83.90
2022-11-09T22:35:43.622Z,84.40
2022-11-09T22:38:33.373Z,85.00
2022-11-09T22:41:20.785Z,85.40
2022-11-09T22:44:08.302Z,84.60
2022-11-09T22:46:56.053Z,83.70
2022-11-09T22:49:43.388Z,83.80
2022-11-09T22:52:30.678Z,83.70
2022-11-09T22:55:20.306Z,83.90
2022-11-09T22:58:09.134Z,83.80
2022-11-09T23:00:57.032Z,83.90
2022-11-09T23:03:44.681Z,83.90
2022-11-09T23:06:34.038Z,83.70
2022-11-09T23:09:21.337Z,83.50
2022-11-09T23:12:10.153Z,83.60
2022-11-09T23:15:06.405Z,83.50
2022-11-09T23:18:12.301Z,83.60
2022-11-09T23:21:01.835Z,83.80
2022-11-09T23:23:50.386Z,84.20
2022-11-09T23:26:37.897Z,84.60
2022-11-09T23:29:26.812Z,85.00
2022-11-09T23:32:14.310Z,85.40
2022-11-09T23:35:01.619Z,85.60
2022-11-09T23:37:48.841Z,85.70
2022-11-09T23:40:37.063Z,85.80
2022-11-09T23:43:24.755Z,86.00
2022-11-09T23:46:15.330Z,86.20
2022-11-09T23:49:02.979Z,86.40
2022-11-09T23:51:50.292Z,86.60
2022-11-09T23:54:37.609Z,86.50
2022-11-09T23:57:24.759Z,86.70
